Watertown, Connecticut
Current Conditions -  °F | °C
As of 1:50 PM on Friday 24 Oct 2014 (Local Time) from KOXC Reporting Station
Overcast Overcast  
Wind Chill: 11°   Ceiling: 2000
Heat Index: 11°   Visibility: 10mi
Dew Point:   Wind: 9mph
Humidity: 62%   Direction: 320°NW
Pressure: 29.76"   Gusts: 23mph
Location:  41.61°N, 73.12°W
Report Text: KOXC 241750Z 32008G20KT 10SM OVC020 11/04 A2976
Loading
Personal Weather Stations






























Interactive Weather Map
Tropical Storm Tracking
New forecast layout! Learn more

10-Day Weather Forecast

Advertisements
Track Severe Weather on mobile